sensor_id;sensor_type;location;lat;lon;timestamp;temperature;humidity
20370;DHT22;10344;47.592;9.600;2023-05-28T00:02:09;15.50;99.90
20370;DHT22;10344;47.592;9.600;2023-05-28T00:04:35;15.40;99.90
20370;DHT22;10344;47.592;9.600;2023-05-28T00:07:04;15.30;99.90
20370;DHT22;10344;47.592;9.600;2023-05-28T00:09:31;15.30;99.90
20370;DHT22;10344;47.592;9.600;2023-05-28T00:11:57;15.20;99.90
20370;DHT22;10344;47.592;9.600;2023-05-28T00:14:23;15.10;99.90
20370;DHT22;10344;47.592;9.600;2023-05-28T00:16:48;15.00;99.90
20370;DHT22;10344;47.592;9.600;2023-05-28T00:19:16;15.00;99.90
20370;DHT22;10344;47.592;9.600;2023-05-28T00:21:42;14.90;99.90
20370;DHT22;10344;47.592;9.600;2023-05-28T00:24:07;14.90;99.90
20370;DHT22;10344;47.592;9.600;2023-05-28T00:26:33;14.90;99.90
20370;DHT22;10344;47.592;9.600;2023-05-28T00:28:59;14.90;99.90
20370;DHT22;10344;47.592;9.600;2023-05-28T00:31:24;14.80;99.90
20370;DHT22;10344;47.592;9.600;2023-05-28T00:33:53;14.70;99.90
20370;DHT22;10344;47.592;9.600;2023-05-28T00:36:18;14.70;99.90
20370;DHT22;10344;47.592;9.600;2023-05-28T00:38:44;14.70;99.90
20370;DHT22;10344;47.592;9.600;2023-05-28T00:41:10;14.70;99.90
20370;DHT22;10344;47.592;9.600;2023-05-28T00:43:38;14.60;99.90
20370;DHT22;10344;47.592;9.600;2023-05-28T00:46:06;14.60;99.90
20370;DHT22;10344;47.592;9.600;2023-05-28T00:48:32;14.50;99.90
20370;DHT22;10344;47.592;9.600;2023-05-28T00:51:00;14.40;99.90
20370;DHT22;10344;47.592;9.600;2023-05-28T00:53:28;14.40;99.90
20370;DHT22;10344;47.592;9.600;2023-05-28T00:55:54;14.30;99.90
20370;DHT22;10344;47.592;9.600;2023-05-28T00:58:23;14.30;99.90
20370;DHT22;10344;47.592;9.600;2023-05-28T01:00:49;14.20;99.90
20370;DHT22;10344;47.592;9.600;2023-05-28T01:03:17;14.20;99.90
20370;DHT22;10344;47.592;9.600;2023-05-28T01:05:45;14.10;99.90
20370;DHT22;10344;47.592;9.600;2023-05-28T01:08:14;14.10;99.90
20370;DHT22;10344;47.592;9.600;2023-05-28T01:10:45;14.10;99.90
20370;DHT22;10344;47.592;9.600;2023-05-28T01:13:12;14.00;99.90
20370;DHT22;10344;47.592;9.600;2023-05-28T01:15:37;14.00;99.90
20370;DHT22;10344;47.592;9.600;2023-05-28T01:18:06;14.00;99.90
20370;DHT22;10344;47.592;9.600;2023-05-28T01:20:32;13.90;99.90
20370;DHT22;10344;47.592;9.600;2023-05-28T01:23:07;13.90;99.90
20370;DHT22;10344;47.592;9.600;2023-05-28T01:25:38;13.90;99.90
20370;DHT22;10344;47.592;9.600;2023-05-28T01:28:11;13.90;99.90
20370;DHT22;10344;47.592;9.600;2023-05-28T01:30:38;13.80;99.90
20370;DHT22;10344;47.592;9.600;2023-05-28T01:33:04;13.80;99.90
20370;DHT22;10344;47.592;9.600;2023-05-28T01:35:30;13.70;99.90
20370;DHT22;10344;47.592;9.600;2023-05-28T01:37:56;13.70;99.90
20370;DHT22;10344;47.592;9.600;2023-05-28T01:40:27;13.60;99.90
20370;DHT22;10344;47.592;9.600;2023-05-28T01:42:54;13.60;99.90
20370;DHT22;10344;47.592;9.600;2023-05-28T01:45:22;13.60;99.90
20370;DHT22;10344;47.592;9.600;2023-05-28T01:47:49;13.50;99.90
20370;DHT22;10344;47.592;9.600;2023-05-28T01:50:17;13.40;99.90
20370;DHT22;10344;47.592;9.600;2023-05-28T01:52:46;13.40;99.90
20370;DHT22;10344;47.592;9.600;2023-05-28T01:55:11;13.40;99.90
20370;DHT22;10344;47.592;9.600;2023-05-28T01:57:39;13.30;99.90
20370;DHT22;10344;47.592;9.600;2023-05-28T02:00:06;13.20;99.90
20370;DHT22;10344;47.592;9.600;2023-05-28T02:02:32;13.20;99.90
20370;DHT22;10344;47.592;9.600;2023-05-28T02:04:58;13.10;99.90
20370;DHT22;10344;47.592;9.600;2023-05-28T02:07:26;13.10;99.90
20370;DHT22;10344;47.592;9.600;2023-05-28T02:09:54;13.00;99.90
20370;DHT22;10344;47.592;9.600;2023-05-28T02:12:19;13.00;99.90
20370;DHT22;10344;47.592;9.600;2023-05-28T02:14:45;12.90;99.90
20370;DHT22;10344;47.592;9.600;2023-05-28T02:17:11;12.90;99.90
20370;DHT22;10344;47.592;9.600;2023-05-28T02:19:39;12.90;99.90
20370;DHT22;10344;47.592;9.600;2023-05-28T02:22:04;12.90;99.90
20370;DHT22;10344;47.592;9.600;2023-05-28T02:24:37;12.90;99.90
20370;DHT22;10344;47.592;9.600;2023-05-28T02:27:06;12.90;99.90
20370;DHT22;10344;47.592;9.600;2023-05-28T02:29:32;12.90;99.90
20370;DHT22;10344;47.592;9.600;2023-05-28T02:31:59;12.90;99.90
20370;DHT22;10344;47.592;9.600;2023-05-28T02:34:24;12.80;99.90
20370;DHT22;10344;47.592;9.600;2023-05-28T02:36:50;12.80;99.90
20370;DHT22;10344;47.592;9.600;2023-05-28T02:39:18;12.80;99.90
20370;DHT22;10344;47.592;9.600;2023-05-28T02:41:44;12.80;99.90
20370;DHT22;10344;47.592;9.600;2023-05-28T02:44:11;12.70;99.90
20370;DHT22;10344;47.592;9.600;2023-05-28T02:46:37;12.70;99.90
20370;DHT22;10344;47.592;9.600;2023-05-28T02:49:05;12.70;99.90
20370;DHT22;10344;47.592;9.600;2023-05-28T02:51:31;12.70;99.90
20370;DHT22;10344;47.592;9.600;2023-05-28T02:53:57;12.70;99.90
20370;DHT22;10344;47.592;9.600;2023-05-28T02:56:25;12.70;99.90
20370;DHT22;10344;47.592;9.600;2023-05-28T02:58:51;12.70;99.90
20370;DHT22;10344;47.592;9.600;2023-05-28T03:01:18;12.70;99.90
20370;DHT22;10344;47.592;9.600;2023-05-28T03:03:46;12.60;99.90
20370;DHT22;10344;47.592;9.600;2023-05-28T03:06:13;12.60;99.90
20370;DHT22;10344;47.592;9.600;2023-05-28T03:08:40;12.60;99.90
20370;DHT22;10344;47.592;9.600;2023-05-28T03:11:08;12.60;99.90
20370;DHT22;10344;47.592;9.600;2023-05-28T03:13:33;12.50;99.90
20370;DHT22;10344;47.592;9.600;2023-05-28T03:15:59;12.50;99.90
20370;DHT22;10344;47.592;9.600;2023-05-28T03:18:24;12.50;99.90
20370;DHT22;10344;47.592;9.600;2023-05-28T03:20:52;12.40;99.90
20370;DHT22;10344;47.592;9.600;2023-05-28T03:23:19;12.50;99.90
20370;DHT22;10344;47.592;9.600;2023-05-28T03:25:44;12.50;99.90
20370;DHT22;10344;47.592;9.600;2023-05-28T03:28:12;12.40;99.90
20370;DHT22;10344;47.592;9.600;2023-05-28T03:30:38;12.40;99.90
20370;DHT22;10344;47.592;9.600;2023-05-28T03:33:08;12.40;99.90
20370;DHT22;10344;47.592;9.600;2023-05-28T03:35:33;12.30;99.90
20370;DHT22;10344;47.592;9.600;2023-05-28T03:38:01;12.30;99.90
20370;DHT22;10344;47.592;9.600;2023-05-28T03:40:30;12.30;99.90
20370;DHT22;10344;47.592;9.600;2023-05-28T03:42:56;12.30;99.90
20370;DHT22;10344;47.592;9.600;2023-05-28T03:45:24;12.30;99.90
20370;DHT22;10344;47.592;9.600;2023-05-28T03:47:52;12.30;99.90
20370;DHT22;10344;47.592;9.600;2023-05-28T03:50:20;12.30;99.90
20370;DHT22;10344;47.592;9.600;2023-05-28T03:52:45;12.30;99.90
20370;DHT22;10344;47.592;9.600;2023-05-28T03:55:14;12.20;99.90
20370;DHT22;10344;47.592;9.600;2023-05-28T03:57:40;12.20;99.90
20370;DHT22;10344;47.592;9.600;2023-05-28T04:00:07;12.30;99.90
20370;DHT22;10344;47.592;9.600;2023-05-28T04:02:32;12.30;99.90
20370;DHT22;10344;47.592;9.600;2023-05-28T04:04:58;12.30;99.90
20370;DHT22;10344;47.592;9.600;2023-05-28T04:07:26;12.30;99.90
20370;DHT22;10344;47.592;9.600;2023-05-28T04:09:54;12.30;99.90
20370;DHT22;10344;47.592;9.600;2023-05-28T04:12:19;12.20;99.90
20370;DHT22;10344;47.592;9.600;2023-05-28T04:14:45;12.30;99.90
20370;DHT22;10344;47.592;9.600;2023-05-28T04:17:14;12.40;99.90
20370;DHT22;10344;47.592;9.600;2023-05-28T04:19:40;12.30;99.90
20370;DHT22;10344;47.592;9.600;2023-05-28T04:22:06;12.40;99.90
20370;DHT22;10344;47.592;9.600;2023-05-28T04:24:34;12.40;99.90
20370;DHT22;10344;47.592;9.600;2023-05-28T04:27:00;12.40;99.90
20370;DHT22;10344;47.592;9.600;2023-05-28T04:29:26;12.40;99.90
20370;DHT22;10344;47.592;9.600;2023-05-28T04:31:54;12.50;99.90
20370;DHT22;10344;47.592;9.600;2023-05-28T04:34:22;12.50;99.90
20370;DHT22;10344;47.592;9.600;2023-05-28T04:36:53;12.50;99.90
20370;DHT22;10344;47.592;9.600;2023-05-28T04:39:24;12.50;99.90
20370;DHT22;10344;47.592;9.600;2023-05-28T04:41:52;12.60;99.90
20370;DHT22;10344;47.592;9.600;2023-05-28T04:44:19;12.70;99.90
20370;DHT22;10344;47.592;9.600;2023-05-28T04:46:45;12.60;99.90
20370;DHT22;10344;47.592;9.600;2023-05-28T04:49:11;12.70;99.90
20370;DHT22;10344;47.592;9.600;2023-05-28T04:51:39;12.70;99.90
20370;DHT22;10344;47.592;9.600;2023-05-28T04:54:07;12.80;99.90
20370;DHT22;10344;47.592;9.600;2023-05-28T04:56:33;12.90;99.90
20370;DHT22;10344;47.592;9.600;2023-05-28T04:58:59;12.90;99.90
20370;DHT22;10344;47.592;9.600;2023-05-28T05:01:24;13.00;99.90
20370;DHT22;10344;47.592;9.600;2023-05-28T05:03:50;13.10;99.90
20370;DHT22;10344;47.592;9.600;2023-05-28T05:06:16;13.20;99.90
20370;DHT22;10344;47.592;9.600;2023-05-28T05:08:41;13.20;99.90
20370;DHT22;10344;47.592;9.600;2023-05-28T05:11:07;13.20;99.90
20370;DHT22;10344;47.592;9.600;2023-05-28T05:13:37;13.30;99.90
20370;DHT22;10344;47.592;9.600;2023-05-28T05:16:03;13.40;99.90
20370;DHT22;10344;47.592;9.600;2023-05-28T05:18:28;13.40;99.90
20370;DHT22;10344;47.592;9.600;2023-05-28T05:20:54;13.50;99.90
20370;DHT22;10344;47.592;9.600;2023-05-28T05:23:22;13.60;99.90
20370;DHT22;10344;47.592;9.600;2023-05-28T05:25:48;13.70;99.90
20370;DHT22;10344;47.592;9.600;2023-05-28T05:28:16;13.80;99.90
20370;DHT22;10344;47.592;9.600;2023-05-28T05:30:41;13.80;99.90
20370;DHT22;10344;47.592;9.600;2023-05-28T05:33:07;13.90;99.90
20370;DHT22;10344;47.592;9.600;2023-05-28T05:35:33;14.00;99.90
20370;DHT22;10344;47.592;9.600;2023-05-28T05:38:01;14.00;99.90
20370;DHT22;10344;47.592;9.600;2023-05-28T05:40:27;14.20;99.90
20370;DHT22;10344;47.592;9.600;2023-05-28T05:42:55;14.20;99.90
20370;DHT22;10344;47.592;9.600;2023-05-28T05:45:21;14.30;99.90
20370;DHT22;10344;47.592;9.600;2023-05-28T05:47:47;14.40;99.90
20370;DHT22;10344;47.592;9.600;2023-05-28T05:50:13;14.50;99.90
20370;DHT22;10344;47.592;9.600;2023-05-28T05:52:41;14.60;99.90
20370;DHT22;10344;47.592;9.600;2023-05-28T05:55:09;14.70;99.90
20370;DHT22;10344;47.592;9.600;2023-05-28T05:57:35;14.80;99.90
20370;DHT22;10344;47.592;9.600;2023-05-28T06:00:12;14.90;99.90
20370;DHT22;10344;47.592;9.600;2023-05-28T06:02:45;15.00;99.90
20370;DHT22;10344;47.592;9.600;2023-05-28T06:05:15;15.10;99.90
20370;DHT22;10344;47.592;9.600;2023-05-28T06:07:45;15.20;99.90
20370;DHT22;10344;47.592;9.600;2023-05-28T06:10:14;15.30;99.90
20370;DHT22;10344;47.592;9.600;2023-05-28T06:12:42;15.40;99.90
20370;DHT22;10344;47.592;9.600;2023-05-28T06:15:08;15.50;99.90
20370;DHT22;10344;47.592;9.600;2023-05-28T06:17:33;15.50;99.90
20370;DHT22;10344;47.592;9.600;2023-05-28T06:20:03;15.60;99.90
20370;DHT22;10344;47.592;9.600;2023-05-28T06:22:35;15.70;99.90
20370;DHT22;10344;47.592;9.600;2023-05-28T06:25:00;15.80;99.90
20370;DHT22;10344;47.592;9.600;2023-05-28T06:27:31;16.00;99.90
20370;DHT22;10344;47.592;9.600;2023-05-28T06:29:59;16.20;99.90
20370;DHT22;10344;47.592;9.600;2023-05-28T06:32:25;16.50;99.90
20370;DHT22;10344;47.592;9.600;2023-05-28T06:34:50;16.60;99.90
20370;DHT22;10344;47.592;9.600;2023-05-28T06:37:16;16.70;99.90
20370;DHT22;10344;47.592;9.600;2023-05-28T06:39:42;16.90;99.90
20370;DHT22;10344;47.592;9.600;2023-05-28T06:42:07;17.20;99.90
20370;DHT22;10344;47.592;9.600;2023-05-28T06:44:34;17.50;99.90
20370;DHT22;10344;47.592;9.600;2023-05-28T06:47:02;17.70;99.90
20370;DHT22;10344;47.592;9.600;2023-05-28T06:49:31;17.80;99.90
20370;DHT22;10344;47.592;9.600;2023-05-28T06:51:56;18.00;99.90
20370;DHT22;10344;47.592;9.600;2023-05-28T06:54:22;18.30;99.90
20370;DHT22;10344;47.592;9.600;2023-05-28T06:56:51;18.60;99.90
20370;DHT22;10344;47.592;9.600;2023-05-28T06:59:17;18.70;99.90
20370;DHT22;10344;47.592;9.600;2023-05-28T07:01:42;18.70;99.90
20370;DHT22;10344;47.592;9.600;2023-05-28T07:04:15;19.20;99.90
20370;DHT22;10344;47.592;9.600;2023-05-28T07:06:41;19.20;99.90
20370;DHT22;10344;47.592;9.600;2023-05-28T07:09:07;19.40;99.90
20370;DHT22;10344;47.592;9.600;2023-05-28T07:11:32;19.30;99.90
20370;DHT22;10344;47.592;9.600;2023-05-28T07:14:00;19.40;99.90
20370;DHT22;10344;47.592;9.600;2023-05-28T07:16:25;20.20;99.90
20370;DHT22;10344;47.592;9.600;2023-05-28T07:18:56;20.80;99.90
20370;DHT22;10344;47.592;9.600;2023-05-28T07:21:22;21.20;99.90
20370;DHT22;10344;47.592;9.600;2023-05-28T07:23:50;21.80;99.90
20370;DHT22;10344;47.592;9.600;2023-05-28T07:26:16;22.10;99.90
20370;DHT22;10344;47.592;9.600;2023-05-28T07:28:41;22.20;99.90
20370;DHT22;10344;47.592;9.600;2023-05-28T07:31:07;22.10;99.90
20370;DHT22;10344;47.592;9.600;2023-05-28T07:33:34;22.30;99.90
20370;DHT22;10344;47.592;9.600;2023-05-28T07:36:03;22.30;99.90
20370;DHT22;10344;47.592;9.600;2023-05-28T07:38:28;22.10;99.90
20370;DHT22;10344;47.592;9.600;2023-05-28T07:40:58;22.20;99.90
20370;DHT22;10344;47.592;9.600;2023-05-28T07:43:26;22.70;99.90
20370;DHT22;10344;47.592;9.600;2023-05-28T07:45:51;23.00;99.90
20370;DHT22;10344;47.592;9.600;2023-05-28T07:48:17;22.90;99.90
20370;DHT22;10344;47.592;9.600;2023-05-28T07:50:42;22.90;99.90
20370;DHT22;10344;47.592;9.600;2023-05-28T07:53:10;22.50;99.90
20370;DHT22;10344;47.592;9.600;2023-05-28T07:55:42;22.50;99.90
20370;DHT22;10344;47.592;9.600;2023-05-28T07:58:07;22.90;99.90
20370;DHT22;10344;47.592;9.600;2023-05-28T08:00:36;22.90;99.90
20370;DHT22;10344;47.592;9.600;2023-05-28T08:03:04;22.30;99.90
20370;DHT22;10344;47.592;9.600;2023-05-28T08:05:34;21.90;99.90
20370;DHT22;10344;47.592;9.600;2023-05-28T08:08:02;21.60;99.90
20370;DHT22;10344;47.592;9.600;2023-05-28T08:10:28;21.50;99.90
20370;DHT22;10344;47.592;9.600;2023-05-28T08:13:01;21.80;99.90
20370;DHT22;10344;47.592;9.600;2023-05-28T08:15:27;21.60;99.90
20370;DHT22;10344;47.592;9.600;2023-05-28T08:17:52;21.10;99.90
20370;DHT22;10344;47.592;9.600;2023-05-28T08:20:30;20.90;99.90
20370;DHT22;10344;47.592;9.600;2023-05-28T08:23:04;21.30;99.90
20370;DHT22;10344;47.592;9.600;2023-05-28T08:25:30;21.80;99.90
20370;DHT22;10344;47.592;9.600;2023-05-28T08:28:01;21.90;99.90
20370;DHT22;10344;47.592;9.600;2023-05-28T08:30:30;21.90;99.90
20370;DHT22;10344;47.592;9.600;2023-05-28T08:32:59;22.00;99.90
20370;DHT22;10344;47.592;9.600;2023-05-28T08:35:27;22.60;99.90
20370;DHT22;10344;47.592;9.600;2023-05-28T08:37:55;22.50;99.90
20370;DHT22;10344;47.592;9.600;2023-05-28T08:40:23;22.30;99.90
20370;DHT22;10344;47.592;9.600;2023-05-28T08:42:53;21.90;99.90
20370;DHT22;10344;47.592;9.600;2023-05-28T08:45:19;22.10;99.90
20370;DHT22;10344;47.592;9.600;2023-05-28T08:47:48;22.60;99.90
20370;DHT22;10344;47.592;9.600;2023-05-28T08:50:22;23.30;99.90
20370;DHT22;10344;47.592;9.600;2023-05-28T08:52:50;23.50;99.90
20370;DHT22;10344;47.592;9.600;2023-05-28T08:55:19;23.70;99.90
20370;DHT22;10344;47.592;9.600;2023-05-28T08:57:45;23.90;99.90
20370;DHT22;10344;47.592;9.600;2023-05-28T09:00:14;23.90;99.90
20370;DHT22;10344;47.592;9.600;2023-05-28T09:02:40;23.50;99.90
20370;DHT22;10344;47.592;9.600;2023-05-28T09:05:09;23.30;99.90
20370;DHT22;10344;47.592;9.600;2023-05-28T09:07:39;23.00;99.90
20370;DHT22;10344;47.592;9.600;2023-05-28T09:10:11;23.20;99.90
20370;DHT22;10344;47.592;9.600;2023-05-28T09:12:36;23.60;99.90
20370;DHT22;10344;47.592;9.600;2023-05-28T09:15:07;23.40;99.90
20370;DHT22;10344;47.592;9.600;2023-05-28T09:17:34;23.10;99.90
20370;DHT22;10344;47.592;9.600;2023-05-28T09:20:00;22.80;99.90
20370;DHT22;10344;47.592;9.600;2023-05-28T09:22:30;22.70;99.90
20370;DHT22;10344;47.592;9.600;2023-05-28T09:25:00;22.40;99.90
20370;DHT22;10344;47.592;9.600;2023-05-28T09:27:27;22.30;99.90
20370;DHT22;10344;47.592;9.600;2023-05-28T09:29:55;22.20;99.90
20370;DHT22;10344;47.592;9.600;2023-05-28T09:32:21;22.40;99.90
20370;DHT22;10344;47.592;9.600;2023-05-28T09:34:49;22.60;99.90
20370;DHT22;10344;47.592;9.600;2023-05-28T09:37:20;22.30;99.90
20370;DHT22;10344;47.592;9.600;2023-05-28T09:39:46;22.40;99.90
20370;DHT22;10344;47.592;9.600;2023-05-28T09:42:12;22.70;99.90
20370;DHT22;10344;47.592;9.600;2023-05-28T09:44:43;22.70;99.90
20370;DHT22;10344;47.592;9.600;2023-05-28T09:47:20;22.60;99.90
20370;DHT22;10344;47.592;9.600;2023-05-28T09:49:47;22.40;99.90
20370;DHT22;10344;47.592;9.600;2023-05-28T09:52:20;22.20;99.90
20370;DHT22;10344;47.592;9.600;2023-05-28T09:54:54;22.20;99.90
20370;DHT22;10344;47.592;9.600;2023-05-28T09:57:30;22.00;99.90
20370;DHT22;10344;47.592;9.600;2023-05-28T10:00:01;21.60;99.90
20370;DHT22;10344;47.592;9.600;2023-05-28T10:05:44;21.50;99.90
20370;DHT22;10344;47.592;9.600;2023-05-28T10:08:16;21.60;99.90
20370;DHT22;10344;47.592;9.600;2023-05-28T10:10:44;21.60;99.90
20370;DHT22;10344;47.592;9.600;2023-05-28T10:13:13;21.50;99.90
20370;DHT22;10344;47.592;9.600;2023-05-28T10:15:50;21.80;99.90
20370;DHT22;10344;47.592;9.600;2023-05-28T10:18:20;22.40;99.90
20370;DHT22;10344;47.592;9.600;2023-05-28T10:20:46;22.60;99.90
20370;DHT22;10344;47.592;9.600;2023-05-28T10:23:12;22.40;99.90
20370;DHT22;10344;47.592;9.600;2023-05-28T10:25:39;22.80;99.90
20370;DHT22;10344;47.592;9.600;2023-05-28T10:28:05;23.00;99.90
20370;DHT22;10344;47.592;9.600;2023-05-28T10:30:36;23.10;99.90
20370;DHT22;10344;47.592;9.600;2023-05-28T10:33:12;23.40;99.90
20370;DHT22;10344;47.592;9.600;2023-05-28T10:35:56;23.80;99.90
20370;DHT22;10344;47.592;9.600;2023-05-28T10:38:29;24.40;99.90
20370;DHT22;10344;47.592;9.600;2023-05-28T10:41:02;25.20;99.90
20370;DHT22;10344;47.592;9.600;2023-05-28T10:51:56;25.50;99.90
20370;DHT22;10344;47.592;9.600;2023-05-28T10:57:16;24.80;99.90
20370;DHT22;10344;47.592;9.600;2023-05-28T11:02:33;24.30;99.90
20370;DHT22;10344;47.592;9.600;2023-05-28T11:05:09;24.80;99.90
20370;DHT22;10344;47.592;9.600;2023-05-28T11:07:39;25.50;99.90
20370;DHT22;10344;47.592;9.600;2023-05-28T11:10:15;26.20;99.90
20370;DHT22;10344;47.592;9.600;2023-05-28T11:12:44;26.60;99.90
20370;DHT22;10344;47.592;9.600;2023-05-28T11:15:11;27.30;99.90
20370;DHT22;10344;47.592;9.600;2023-05-28T11:17:44;27.80;99.90
20370;DHT22;10344;47.592;9.600;2023-05-28T11:22:49;28.60;99.90
20370;DHT22;10344;47.592;9.600;2023-05-28T11:25:15;28.90;99.90
20370;DHT22;10344;47.592;9.600;2023-05-28T11:27:49;29.10;99.90
20370;DHT22;10344;47.592;9.600;2023-05-28T11:30:16;29.40;99.90
20370;DHT22;10344;47.592;9.600;2023-05-28T11:32:43;29.60;99.90
20370;DHT22;10344;47.592;9.600;2023-05-28T11:35:09;28.90;99.90
20370;DHT22;10344;47.592;9.600;2023-05-28T11:37:40;28.00;99.90
20370;DHT22;10344;47.592;9.600;2023-05-28T11:40:09;27.50;99.90
20370;DHT22;10344;47.592;9.600;2023-05-28T11:42:36;27.60;99.90
20370;DHT22;10344;47.592;9.600;2023-05-28T11:45:01;28.10;99.90
20370;DHT22;10344;47.592;9.600;2023-05-28T11:47:27;28.60;99.90
20370;DHT22;10344;47.592;9.600;2023-05-28T11:49:56;28.90;99.90
20370;DHT22;10344;47.592;9.600;2023-05-28T11:52:29;29.10;99.90
20370;DHT22;10344;47.592;9.600;2023-05-28T11:54:56;29.50;99.90
20370;DHT22;10344;47.592;9.600;2023-05-28T11:57:24;29.80;99.90
20370;DHT22;10344;47.592;9.600;2023-05-28T12:02:26;30.10;99.90
20370;DHT22;10344;47.592;9.600;2023-05-28T12:05:02;30.30;99.90
20370;DHT22;10344;47.592;9.600;2023-05-28T12:07:31;30.60;99.90
20370;DHT22;10344;47.592;9.600;2023-05-28T12:10:04;30.90;99.90
20370;DHT22;10344;47.592;9.600;2023-05-28T12:12:29;31.00;99.90
20370;DHT22;10344;47.592;9.600;2023-05-28T12:14:56;30.90;99.90
20370;DHT22;10344;47.592;9.600;2023-05-28T12:17:25;31.00;99.90
20370;DHT22;10344;47.592;9.600;2023-05-28T12:19:50;31.00;99.90
20370;DHT22;10344;47.592;9.600;2023-05-28T12:22:16;30.90;99.90
20370;DHT22;10344;47.592;9.600;2023-05-28T12:24:50;31.00;99.90
20370;DHT22;10344;47.592;9.600;2023-05-28T12:27:21;30.70;99.90
20370;DHT22;10344;47.592;9.600;2023-05-28T12:29:52;29.70;99.90
20370;DHT22;10344;47.592;9.600;2023-05-28T12:32:17;29.20;99.90
20370;DHT22;10344;47.592;9.600;2023-05-28T12:34:44;29.40;99.90
20370;DHT22;10344;47.592;9.600;2023-05-28T12:37:13;29.60;99.90
20370;DHT22;10344;47.592;9.600;2023-05-28T12:39:39;29.70;99.90
20370;DHT22;10344;47.592;9.600;2023-05-28T12:42:07;30.00;99.90
20370;DHT22;10344;47.592;9.600;2023-05-28T12:44:33;30.20;99.90
20370;DHT22;10344;47.592;9.600;2023-05-28T12:47:05;30.30;99.90
20370;DHT22;10344;47.592;9.600;2023-05-28T12:49:30;29.90;99.90
20370;DHT22;10344;47.592;9.600;2023-05-28T12:52:04;29.40;99.90
20370;DHT22;10344;47.592;9.600;2023-05-28T12:54:33;29.20;99.90
20370;DHT22;10344;47.592;9.600;2023-05-28T12:57:01;29.20;99.90
20370;DHT22;10344;47.592;9.600;2023-05-28T12:59:28;29.50;99.90
20370;DHT22;10344;47.592;9.600;2023-05-28T13:01:54;29.80;99.90
20370;DHT22;10344;47.592;9.600;2023-05-28T13:04:21;30.00;99.90
20370;DHT22;10344;47.592;9.600;2023-05-28T13:06:53;30.00;98.90
20370;DHT22;10344;47.592;9.600;2023-05-28T13:09:19;30.20;97.60
20370;DHT22;10344;47.592;9.600;2023-05-28T13:11:45;30.50;96.10
20370;DHT22;10344;47.592;9.600;2023-05-28T13:14:13;30.60;98.40
20370;DHT22;10344;47.592;9.600;2023-05-28T13:16:39;30.60;98.70
20370;DHT22;10344;47.592;9.600;2023-05-28T13:19:09;30.40;99.90
20370;DHT22;10344;47.592;9.600;2023-05-28T13:21:38;30.00;99.20
20370;DHT22;10344;47.592;9.600;2023-05-28T13:24:07;29.50;99.00
20370;DHT22;10344;47.592;9.600;2023-05-28T13:26:43;29.00;99.90
20370;DHT22;10344;47.592;9.600;2023-05-28T13:29:08;28.90;99.90
20370;DHT22;10344;47.592;9.600;2023-05-28T13:31:41;29.00;97.70
20370;DHT22;10344;47.592;9.600;2023-05-28T13:34:07;29.00;99.90
20370;DHT22;10344;47.592;9.600;2023-05-28T13:36:32;28.90;99.70
20370;DHT22;10344;47.592;9.600;2023-05-28T13:38:58;28.60;99.90
20370;DHT22;10344;47.592;9.600;2023-05-28T13:41:23;28.40;99.90
20370;DHT22;10344;47.592;9.600;2023-05-28T13:43:50;28.50;99.90
20370;DHT22;10344;47.592;9.600;2023-05-28T13:46:24;28.30;98.70
20370;DHT22;10344;47.592;9.600;2023-05-28T13:48:50;28.20;99.10
20370;DHT22;10344;47.592;9.600;2023-05-28T13:51:18;28.50;99.20
20370;DHT22;10344;47.592;9.600;2023-05-28T13:53:44;29.00;99.70
20370;DHT22;10344;47.592;9.600;2023-05-28T13:56:12;29.30;96.50
20370;DHT22;10344;47.592;9.600;2023-05-28T13:58:38;29.40;94.80
20370;DHT22;10344;47.592;9.600;2023-05-28T14:01:04;29.70;95.80
20370;DHT22;10344;47.592;9.600;2023-05-28T14:03:39;30.00;94.10
20370;DHT22;10344;47.592;9.600;2023-05-28T14:06:10;30.00;95.50
20370;DHT22;10344;47.592;9.600;2023-05-28T14:08:36;30.00;95.00
20370;DHT22;10344;47.592;9.600;2023-05-28T14:11:04;30.00;91.50
20370;DHT22;10344;47.592;9.600;2023-05-28T14:13:29;30.10;91.80
20370;DHT22;10344;47.592;9.600;2023-05-28T14:15:58;30.10;90.20
20370;DHT22;10344;47.592;9.600;2023-05-28T14:18:26;30.00;93.90
20370;DHT22;10344;47.592;9.600;2023-05-28T14:20:54;29.90;94.90
20370;DHT22;10344;47.592;9.600;2023-05-28T14:23:20;30.00;95.00
20370;DHT22;10344;47.592;9.600;2023-05-28T14:25:50;29.80;93.90
20370;DHT22;10344;47.592;9.600;2023-05-28T14:28:17;29.70;94.00
20370;DHT22;10344;47.592;9.600;2023-05-28T14:30:45;29.90;92.70
20370;DHT22;10344;47.592;9.600;2023-05-28T14:33:15;30.00;91.70
20370;DHT22;10344;47.592;9.600;2023-05-28T14:35:40;30.20;90.10
20370;DHT22;10344;47.592;9.600;2023-05-28T14:38:06;29.90;88.00
20370;DHT22;10344;47.592;9.600;2023-05-28T14:40:32;29.90;91.30
20370;DHT22;10344;47.592;9.600;2023-05-28T14:42:57;29.70;88.70
20370;DHT22;10344;47.592;9.600;2023-05-28T14:45:23;29.80;90.60
20370;DHT22;10344;47.592;9.600;2023-05-28T14:47:48;29.80;88.10
20370;DHT22;10344;47.592;9.600;2023-05-28T14:50:13;29.90;89.10
20370;DHT22;10344;47.592;9.600;2023-05-28T14:52:41;29.90;90.00
20370;DHT22;10344;47.592;9.600;2023-05-28T14:55:07;29.90;89.40
20370;DHT22;10344;47.592;9.600;2023-05-28T14:57:35;29.70;90.50
20370;DHT22;10344;47.592;9.600;2023-05-28T15:00:03;29.60;90.40
20370;DHT22;10344;47.592;9.600;2023-05-28T15:02:32;29.60;90.10
20370;DHT22;10344;47.592;9.600;2023-05-28T15:05:02;29.60;87.90
20370;DHT22;10344;47.592;9.600;2023-05-28T15:07:31;29.40;87.10
20370;DHT22;10344;47.592;9.600;2023-05-28T15:09:58;29.30;86.60
20370;DHT22;10344;47.592;9.600;2023-05-28T15:12:26;29.10;87.60
20370;DHT22;10344;47.592;9.600;2023-05-28T15:14:51;29.00;87.00
20370;DHT22;10344;47.592;9.600;2023-05-28T15:17:19;29.00;88.70
20370;DHT22;10344;47.592;9.600;2023-05-28T15:19:47;28.90;89.10
20370;DHT22;10344;47.592;9.600;2023-05-28T15:22:12;28.90;88.90
20370;DHT22;10344;47.592;9.600;2023-05-28T15:24:38;28.90;89.70
20370;DHT22;10344;47.592;9.600;2023-05-28T15:27:04;29.00;89.60
20370;DHT22;10344;47.592;9.600;2023-05-28T15:29:30;29.10;88.10
20370;DHT22;10344;47.592;9.600;2023-05-28T15:31:59;29.10;86.70
20370;DHT22;10344;47.592;9.600;2023-05-28T15:34:25;28.80;85.50
20370;DHT22;10344;47.592;9.600;2023-05-28T15:36:51;28.60;90.20
20370;DHT22;10344;47.592;9.600;2023-05-28T15:39:18;28.70;89.80
20370;DHT22;10344;47.592;9.600;2023-05-28T15:41:44;28.60;89.00
20370;DHT22;10344;47.592;9.600;2023-05-28T15:44:13;28.50;85.50
20370;DHT22;10344;47.592;9.600;2023-05-28T15:46:46;28.30;88.40
20370;DHT22;10344;47.592;9.600;2023-05-28T15:49:11;28.20;90.00
20370;DHT22;10344;47.592;9.600;2023-05-28T15:51:37;28.10;89.90
20370;DHT22;10344;47.592;9.600;2023-05-28T15:54:02;28.20;88.90
20370;DHT22;10344;47.592;9.600;2023-05-28T15:56:30;28.20;87.60